createdAt,value
2022-12-16T00:04:46.061Z,25.00
2022-12-16T00:09:56.480Z,24.90
2022-12-16T00:15:02.800Z,25.30
2022-12-16T00:20:05.732Z,23.40
2022-12-16T00:25:08.164Z,25.90
2022-12-16T00:30:10.381Z,33.80
2022-12-16T00:35:12.182Z,30.40
2022-12-16T00:40:14.018Z,28.80
2022-12-16T00:45:15.886Z,24.80
2022-12-16T00:50:18.760Z,20.90
2022-12-16T00:55:21.607Z,26.20
2022-12-16T01:00:23.812Z,21.50
2022-12-16T01:05:28.512Z,17.10
2022-12-16T01:10:30.237Z,22.80
2022-12-16T01:15:31.984Z,18.80
2022-12-16T01:20:34.454Z,19.30
2022-12-16T01:25:36.392Z,21.10
2022-12-16T01:30:38.092Z,18.20
2022-12-16T01:35:56.289Z,16.40
2022-12-16T01:40:59.029Z,14.90
2022-12-16T01:46:10.504Z,18.30
2022-12-16T01:51:24.673Z,18.40
2022-12-16T01:56:31.065Z,20.10
2022-12-16T02:01:32.971Z,18.50
2022-12-16T02:06:35.096Z,17.00
2022-12-16T02:12:08.425Z,16.40
2022-12-16T02:17:13.286Z,21.50
2022-12-16T02:23:02.962Z,22.80
2022-12-16T02:28:23.602Z,18.70
2022-12-16T02:33:49.034Z,20.80
2022-12-16T02:39:01.310Z,18.30
2022-12-16T02:44:09.251Z,18.70
2022-12-16T02:49:13.996Z,15.70
2022-12-16T02:54:17.566Z,17.00
2022-12-16T02:59:28.209Z,16.80
2022-12-16T03:04:43.214Z,21.70
2022-12-16T03:09:47.555Z,18.90
2022-12-16T03:14:52.761Z,19.50
2022-12-16T03:20:14.224Z,17.40
2022-12-16T03:25:16.437Z,18.50
2022-12-16T03:30:26.558Z,21.80
2022-12-16T03:35:48.846Z,22.70
2022-12-16T03:40:52.013Z,28.30
2022-12-16T03:46:04.301Z,23.20
2022-12-16T03:51:06.153Z,22.60
2022-12-16T03:56:08.389Z,21.90
2022-12-16T04:01:10.761Z,23.00
2022-12-16T04:06:12.603Z,19.00
2022-12-16T04:11:34.468Z,24.20
2022-12-16T04:16:55.153Z,25.20
2022-12-16T04:22:15.670Z,25.20
2022-12-16T04:27:29.597Z,28.20
2022-12-16T04:32:50.899Z,22.50
2022-12-16T04:38:11.584Z,29.20
2022-12-16T04:43:32.586Z,23.20
2022-12-16T04:48:53.483Z,26.90
2022-12-16T04:54:13.999Z,23.50
2022-12-16T04:59:34.715Z,25.60
2022-12-16T05:04:55.086Z,26.40
2022-12-16T05:10:15.680Z,31.40
2022-12-16T05:15:36.176Z,27.80
2022-12-16T05:20:56.794Z,28.10
2022-12-16T05:26:17.314Z,22.80
2022-12-16T05:31:38.036Z,27.10
2022-12-16T05:36:58.844Z,28.60
2022-12-16T05:42:19.380Z,31.00
2022-12-16T05:47:39.959Z,30.20
2022-12-16T05:53:00.470Z,32.40
2022-12-16T05:58:21.081Z,37.00
2022-12-16T06:03:41.930Z,30.00
2022-12-16T06:09:02.632Z,32.40
2022-12-16T06:14:23.246Z,26.20
2022-12-16T06:19:43.789Z,26.00
2022-12-16T06:25:04.519Z,24.90
2022-12-16T06:30:25.590Z,24.60
2022-12-16T06:35:46.178Z,19.10
2022-12-16T06:41:06.824Z,22.80
2022-12-16T06:46:27.255Z,18.00
2022-12-16T06:51:47.954Z,19.00
2022-12-16T06:57:08.371Z,24.20
2022-12-16T07:02:30.489Z,23.40
2022-12-16T07:07:52.431Z,17.80
2022-12-16T07:13:17.006Z,22.80
2022-12-16T07:18:37.463Z,19.20
2022-12-16T07:23:57.954Z,22.00
2022-12-16T07:29:18.620Z,26.30
2022-12-16T07:34:42.146Z,24.30
2022-12-16T07:40:05.533Z,27.10
2022-12-16T07:45:26.463Z,18.40
2022-12-16T07:50:47.083Z,21.60
2022-12-16T07:56:07.835Z,25.80
2022-12-16T08:01:29.419Z,23.90
2022-12-16T08:06:50.119Z,21.40
2022-12-16T08:12:10.646Z,23.60
2022-12-16T08:17:31.096Z,25.10
2022-12-16T08:22:51.360Z,26.20
2022-12-16T08:28:16.209Z,27.40
2022-12-16T08:33:37.790Z,29.30
2022-12-16T08:38:58.060Z,26.20
2022-12-16T08:44:18.831Z,28.70
2022-12-16T08:49:39.918Z,31.50
2022-12-16T08:55:00.277Z,29.00
2022-12-16T09:00:21.405Z,30.40
2022-12-16T09:05:42.370Z,26.80
2022-12-16T09:11:02.669Z,25.80
2022-12-16T09:21:43.916Z,24.60
2022-12-16T09:27:04.146Z,27.90
2022-12-16T09:32:24.546Z,29.50
2022-12-16T09:37:45.348Z,30.70
2022-12-16T09:43:33.037Z,27.40
2022-12-16T09:49:02.579Z,30.70
2022-12-16T09:54:24.068Z,40.60
2022-12-16T09:59:53.226Z,39.90
2022-12-16T10:05:15.040Z,28.70
2022-12-16T10:10:44.570Z,27.80
2022-12-16T10:16:14.192Z,28.30
2022-12-16T10:21:42.223Z,28.90
2022-12-16T10:27:16.727Z,28.50
2022-12-16T10:32:49.443Z,28.90
2022-12-16T10:38:10.186Z,26.10
2022-12-16T10:44:10.389Z,30.10
2022-12-16T10:49:33.646Z,31.50
2022-12-16T10:54:59.337Z,30.70
2022-12-16T11:00:35.243Z,32.10
2022-12-16T11:05:56.129Z,33.50
2022-12-16T11:11:16.650Z,30.60
2022-12-16T11:16:46.263Z,31.70
2022-12-16T11:22:07.960Z,35.00
2022-12-16T11:27:39.508Z,31.90
2022-12-16T11:33:15.368Z,29.60
2022-12-16T11:38:48.623Z,28.20
2022-12-16T11:44:11.975Z,30.90
2022-12-16T11:49:50.932Z,25.10
2022-12-16T11:56:02.890Z,27.80
2022-12-16T12:01:21.169Z,26.70
2022-12-16T12:07:18.601Z,28.80
2022-12-16T12:13:17.688Z,28.10
2022-12-16T12:18:56.806Z,30.00
2022-12-16T12:24:45.852Z,28.10
2022-12-16T12:30:24.369Z,30.20
2022-12-16T12:36:09.056Z,29.90
2022-12-16T12:41:38.447Z,29.10
2022-12-16T12:47:01.890Z,34.00
2022-12-16T12:52:48.982Z,31.60
2022-12-16T12:58:13.383Z,34.70
2022-12-16T13:03:49.162Z,34.10
2022-12-16T13:09:09.814Z,32.70
2022-12-16T13:14:49.624Z,36.80
2022-12-16T13:20:14.327Z,34.50
2022-12-16T13:25:54.932Z,35.80
2022-12-16T13:31:25.571Z,37.00
2022-12-16T13:36:53.673Z,35.10
2022-12-16T13:42:19.357Z,39.10
2022-12-16T13:47:59.737Z,31.50
2022-12-16T13:53:23.057Z,37.30
2022-12-16T13:58:43.452Z,35.50
2022-12-16T14:04:10.234Z,42.80
2022-12-16T14:09:50.816Z,42.70
2022-12-16T14:15:19.717Z,39.80
2022-12-16T14:20:55.372Z,43.30
2022-12-16T14:26:17.223Z,43.60
2022-12-16T14:31:47.651Z,47.00
2022-12-16T14:37:12.604Z,39.50
2022-12-16T14:47:58.768Z,40.10
2022-12-16T14:53:33.735Z,43.90
2022-12-16T14:58:54.372Z,39.70
2022-12-16T15:04:16.215Z,39.90
2022-12-16T15:09:46.328Z,42.10
2022-12-16T15:15:07.528Z,39.70
2022-12-16T15:20:56.090Z,43.50
2022-12-16T15:26:17.060Z,48.50
2022-12-16T15:31:50.394Z,47.70
2022-12-16T15:37:10.931Z,48.90
2022-12-16T15:42:47.825Z,50.20
2022-12-16T15:48:09.663Z,40.60
2022-12-16T15:53:51.851Z,46.30
2022-12-16T15:59:33.039Z,43.60
2022-12-16T16:04:53.624Z,44.10
2022-12-16T16:10:41.463Z,42.60
2022-12-16T16:16:02.215Z,43.70
2022-12-16T16:21:23.029Z,40.90
2022-12-16T16:26:46.581Z,39.00
2022-12-16T16:32:07.053Z,41.10
2022-12-16T16:37:33.443Z,42.40
2022-12-16T16:42:53.995Z,35.70
2022-12-16T16:48:36.328Z,42.40
2022-12-16T16:53:56.987Z,43.50
2022-12-16T16:59:17.830Z,47.20
2022-12-16T17:04:38.301Z,43.30
2022-12-16T17:09:59.085Z,46.90
2022-12-16T17:15:19.699Z,42.40
2022-12-16T17:20:40.531Z,46.60
2022-12-16T17:26:01.087Z,42.90
2022-12-16T17:31:29.223Z,42.00
2022-12-16T17:36:50.124Z,42.70
2022-12-16T17:42:10.833Z,45.00
2022-12-16T17:47:31.788Z,41.80
2022-12-16T17:52:52.320Z,43.80
2022-12-16T17:58:12.905Z,41.50
2022-12-16T18:03:33.897Z,40.90
2022-12-16T18:08:54.821Z,39.80
2022-12-16T18:14:15.384Z,42.80
2022-12-16T18:19:36.500Z,41.50
2022-12-16T18:24:56.814Z,43.90
2022-12-16T18:35:51.602Z,38.10
2022-12-16T18:41:20.687Z,38.20
2022-12-16T18:46:41.281Z,39.40
2022-12-16T18:52:01.813Z,37.90
2022-12-16T18:57:22.367Z,48.30
2022-12-16T19:02:43.058Z,42.20
2022-12-16T19:08:03.622Z,42.80
2022-12-16T19:13:24.570Z,44.50
2022-12-16T19:18:45.307Z,37.80
2022-12-16T19:24:27.591Z,45.60
2022-12-16T19:29:48.384Z,36.40
2022-12-16T19:35:08.771Z,42.00
2022-12-16T19:40:30.929Z,42.80
2022-12-16T19:45:51.586Z,42.50
2022-12-16T19:51:20.394Z,44.10
2022-12-16T19:56:41.035Z,45.70
2022-12-16T20:02:01.696Z,43.30
2022-12-16T20:07:23.396Z,40.60
2022-12-16T20:12:44.025Z,32.10
2022-12-16T20:18:04.787Z,41.50
2022-12-16T20:23:25.157Z,38.40
2022-12-16T20:34:12.848Z,41.80
2022-12-16T20:39:33.275Z,40.70
2022-12-16T20:44:53.813Z,39.30
2022-12-16T20:50:16.900Z,40.50
2022-12-16T20:55:37.487Z,36.80
2022-12-16T21:00:58.110Z,39.10
2022-12-16T21:06:18.716Z,41.20
2022-12-16T21:11:39.323Z,37.80
2022-12-16T21:17:00.015Z,41.30
2022-12-16T21:22:20.889Z,41.40
2022-12-16T21:27:41.269Z,35.90
2022-12-16T21:33:01.805Z,42.00
2022-12-16T21:38:30.603Z,37.90
2022-12-16T21:43:51.098Z,40.80
2022-12-16T21:49:12.256Z,40.90
2022-12-16T21:54:32.798Z,34.30
2022-12-16T21:59:53.384Z,38.70
2022-12-16T22:05:17.100Z,32.70
2022-12-16T22:10:37.947Z,37.40
2022-12-16T22:16:02.485Z,37.00
2022-12-16T22:21:25.012Z,28.70
2022-12-16T22:26:45.420Z,35.50
2022-12-16T22:32:06.914Z,35.30
2022-12-16T22:37:28.545Z,36.70
2022-12-16T22:42:48.992Z,36.50
2022-12-16T22:48:09.617Z,34.10
2022-12-16T22:53:32.847Z,35.40
2022-12-16T22:58:53.488Z,36.00
2022-12-16T23:04:16.770Z,35.90
2022-12-16T23:09:37.460Z,29.00
2022-12-16T23:14:58.022Z,32.40
2022-12-16T23:20:18.600Z,31.40
2022-12-16T23:25:39.163Z,35.00
2022-12-16T23:30:59.816Z,34.30
2022-12-16T23:36:20.169Z,31.80
2022-12-16T23:41:40.756Z,33.40
2022-12-16T23:47:01.222Z,36.60
2022-12-16T23:52:21.916Z,32.70
2022-12-16T23:57:42.451Z,33.70
